createdAt,value
2018-09-10T00:02:15.960Z,22.30
2018-09-10T00:04:44.498Z,26.23
2018-09-10T00:07:12.981Z,18.57
2018-09-10T00:09:41.508Z,24.40
2018-09-10T00:12:09.954Z,23.83
2018-09-10T00:14:38.419Z,25.77
2018-09-10T00:17:06.877Z,23.80
2018-09-10T00:19:35.359Z,24.43
2018-09-10T00:22:03.801Z,24.37
2018-09-10T00:24:32.301Z,22.63
2018-09-10T00:27:00.745Z,23.47
2018-09-10T00:29:29.199Z,21.23
2018-09-10T00:31:57.625Z,25.43
2018-09-10T00:34:26.071Z,20.40
2018-09-10T00:36:54.527Z,28.30
2018-09-10T00:39:22.965Z,27.70
2018-09-10T00:41:51.415Z,28.27
2018-09-10T00:44:19.869Z,29.47
2018-09-10T00:46:48.283Z,28.00
2018-09-10T00:49:16.733Z,20.50
2018-09-10T00:51:45.187Z,28.63
2018-09-10T00:54:13.622Z,27.97
2018-09-10T00:56:42.035Z,25.00
2018-09-10T00:59:10.522Z,27.33
2018-09-10T01:01:38.966Z,29.57
2018-09-10T01:04:07.401Z,27.33
2018-09-10T01:06:35.889Z,26.87
2018-09-10T01:09:06.019Z,30.90
2018-09-10T01:11:34.467Z,31.80
2018-09-10T01:14:02.922Z,28.73
2018-09-10T01:16:31.356Z,24.83
2018-09-10T01:18:59.799Z,24.40
2018-09-10T01:21:28.297Z,29.70
2018-09-10T01:23:56.756Z,28.13
2018-09-10T01:26:25.201Z,28.10
2018-09-10T01:28:53.658Z,29.77
2018-09-10T01:31:22.104Z,27.73
2018-09-10T01:33:55.974Z,30.13
2018-09-10T01:36:24.401Z,31.20
2018-09-10T01:38:52.824Z,30.53
2018-09-10T01:41:21.270Z,30.83
2018-09-10T01:43:49.702Z,27.60
2018-09-10T01:46:18.126Z,28.80
2018-09-10T01:48:46.542Z,38.93
2018-09-10T01:51:14.986Z,28.63
2018-09-10T01:53:43.498Z,29.97
2018-09-10T01:56:11.954Z,32.93
2018-09-10T01:58:40.710Z,30.17
2018-09-10T02:01:09.182Z,30.83
2018-09-10T02:03:37.600Z,29.23
2018-09-10T02:06:06.059Z,26.47
2018-09-10T02:08:34.524Z,28.60
2018-09-10T02:11:02.989Z,29.00
2018-09-10T02:13:31.427Z,34.90
2018-09-10T02:15:59.839Z,36.37
2018-09-10T02:18:28.275Z,34.30
2018-09-10T02:20:56.752Z,26.17
2018-09-10T02:23:25.225Z,36.53
2018-09-10T02:25:53.717Z,28.40
2018-09-10T02:28:22.182Z,29.63
2018-09-10T02:30:50.629Z,32.57
2018-09-10T02:33:19.107Z,30.83
2018-09-10T02:35:47.579Z,29.93
2018-09-10T02:38:16.034Z,31.40
2018-09-10T02:40:44.501Z,27.03
2018-09-10T02:43:12.977Z,36.83
2018-09-10T02:45:41.437Z,32.83
2018-09-10T02:48:09.885Z,32.00
2018-09-10T02:50:38.295Z,34.10
2018-09-10T02:53:06.719Z,34.20
2018-09-10T02:55:35.162Z,36.33
2018-09-10T02:58:03.663Z,31.53
2018-09-10T03:00:32.088Z,32.13
2018-09-10T03:03:00.525Z,33.00
2018-09-10T03:05:29.001Z,27.93
2018-09-10T03:07:57.411Z,34.87
2018-09-10T03:10:25.844Z,30.20
2018-09-10T03:12:55.047Z,30.50
2018-09-10T03:15:23.632Z,26.97
2018-09-10T03:17:52.599Z,42.10
2018-09-10T03:20:21.215Z,42.07
2018-09-10T03:22:49.681Z,38.83
2018-09-10T03:25:18.176Z,36.30
2018-09-10T03:27:46.644Z,41.40
2018-09-10T03:30:15.070Z,30.17
2018-09-10T03:32:43.522Z,35.87
2018-09-10T03:35:12.048Z,42.07
2018-09-10T03:37:40.518Z,38.33
2018-09-10T03:40:09.042Z,33.43
2018-09-10T03:42:37.531Z,40.83
2018-09-10T03:45:06.833Z,33.57
2018-09-10T03:47:35.243Z,36.70
2018-09-10T03:50:03.755Z,44.97
2018-09-10T03:52:32.206Z,39.07
2018-09-10T03:55:00.639Z,39.07
2018-09-10T03:57:29.100Z,41.30
2018-09-10T03:59:57.513Z,37.83
2018-09-10T04:02:25.969Z,37.90
2018-09-10T04:04:54.431Z,37.17
2018-09-10T04:07:22.853Z,36.80
2018-09-10T04:09:51.285Z,36.03
2018-09-10T04:12:19.692Z,35.73
2018-09-10T04:14:48.175Z,39.23
2018-09-10T04:17:16.683Z,44.43
2018-09-10T04:19:45.084Z,42.27
2018-09-10T04:22:13.499Z,39.63
2018-09-10T04:24:41.947Z,36.93
2018-09-10T04:27:10.422Z,43.70
2018-09-10T04:29:38.863Z,44.27
2018-09-10T04:32:07.320Z,47.87
2018-09-10T04:34:35.767Z,38.43
2018-09-10T04:37:04.258Z,45.57
2018-09-10T04:39:32.687Z,42.07
2018-09-10T04:42:01.147Z,39.23
2018-09-10T04:44:29.619Z,40.17
2018-09-10T04:46:58.049Z,37.20
2018-09-10T04:49:27.629Z,48.27
2018-09-10T04:52:00.039Z,46.23
2018-09-10T04:54:28.505Z,52.40
2018-09-10T04:56:56.989Z,43.37
2018-09-10T04:59:25.451Z,44.20
2018-09-10T05:01:53.890Z,41.23
2018-09-10T05:04:22.457Z,42.07
2018-09-10T05:06:51.065Z,45.83
2018-09-10T05:09:19.976Z,37.60
2018-09-10T05:11:49.160Z,41.13
2018-09-10T05:14:17.867Z,52.73
2018-09-10T05:16:46.378Z,44.30
2018-09-10T05:19:16.996Z,51.47
2018-09-10T05:21:48.139Z,46.17
2018-09-10T05:24:16.521Z,44.37
2018-09-10T05:26:44.946Z,44.80
2018-09-10T05:29:13.820Z,42.13
2018-09-10T05:31:43.719Z,36.27
2018-09-10T05:34:13.025Z,38.70
2018-09-10T05:36:43.689Z,46.17
2018-09-10T05:39:13.893Z,48.50
2018-09-10T05:41:42.421Z,43.37
2018-09-10T05:44:11.066Z,51.27
2018-09-10T05:46:39.624Z,37.23
2018-09-10T05:49:08.061Z,47.50
2018-09-10T05:51:36.628Z,50.53
2018-09-10T05:54:05.112Z,46.80
2018-09-10T05:56:33.614Z,51.20
2018-09-10T05:59:02.025Z,52.10
2018-09-10T06:01:30.455Z,49.37
2018-09-10T06:03:58.919Z,50.50
2018-09-10T06:06:27.526Z,51.27
2018-09-10T06:08:55.958Z,62.37
2018-09-10T06:11:24.399Z,49.30
2018-09-10T06:13:52.949Z,46.87
2018-09-10T06:16:21.522Z,41.30
2018-09-10T06:18:50.023Z,48.50
2018-09-10T06:21:18.486Z,45.50
2018-09-10T06:23:46.927Z,46.83
2018-09-10T06:26:15.397Z,38.83
2018-09-10T06:28:43.857Z,54.53
2018-09-10T06:31:12.339Z,42.70
2018-09-10T06:33:40.805Z,53.67
2018-09-10T06:36:09.321Z,49.77
2018-09-10T06:38:37.807Z,46.23
2018-09-10T06:41:06.471Z,37.07
2018-09-10T06:43:35.010Z,35.30
2018-09-10T06:46:03.436Z,43.43
2018-09-10T06:48:35.278Z,45.27
2018-09-10T06:51:05.658Z,43.33
2018-09-10T06:53:34.211Z,43.70
2018-09-10T06:56:03.995Z,39.43
2018-09-10T06:58:32.672Z,29.97
2018-09-10T07:01:01.218Z,28.97
2018-09-10T07:03:29.653Z,32.13
2018-09-10T07:05:58.172Z,34.27
2018-09-10T07:08:26.576Z,30.10
2018-09-10T07:10:55.024Z,37.97
2018-09-10T07:13:23.932Z,26.37
2018-09-10T07:15:52.458Z,33.07
2018-09-10T07:18:20.922Z,30.67
2018-09-10T07:20:49.397Z,30.83
2018-09-10T07:23:17.837Z,35.30
2018-09-10T07:25:46.274Z,33.03
2018-09-10T07:28:14.723Z,24.80
2018-09-10T07:30:43.223Z,33.77
2018-09-10T07:33:11.798Z,27.93
2018-09-10T07:35:40.862Z,25.27
2018-09-10T07:38:09.375Z,27.13
2018-09-10T07:40:37.837Z,24.43
2018-09-10T07:43:06.287Z,26.80
2018-09-10T07:45:34.770Z,26.30
2018-09-10T07:48:03.245Z,26.60
2018-09-10T07:50:31.687Z,30.10
2018-09-10T07:53:00.171Z,25.97
2018-09-10T07:55:28.638Z,29.37
2018-09-10T07:57:57.132Z,19.93
2018-09-10T08:00:25.569Z,20.10
2018-09-10T08:02:54.017Z,25.50
2018-09-10T08:05:22.556Z,22.73
2018-09-10T08:07:51.190Z,22.00
2018-09-10T08:10:19.661Z,19.77
2018-09-10T08:12:48.151Z,19.43
2018-09-10T08:15:16.699Z,28.50
2018-09-10T08:17:45.185Z,26.07
2018-09-10T08:20:13.699Z,19.40
2018-09-10T08:22:42.126Z,17.10
2018-09-10T08:25:10.635Z,24.00
2018-09-10T08:27:39.015Z,21.00
2018-09-10T08:30:07.880Z,18.87
2018-09-10T08:32:36.413Z,22.13
2018-09-10T08:35:04.912Z,23.47
2018-09-10T08:37:33.444Z,24.57
2018-09-10T08:40:01.902Z,20.53
2018-09-10T08:42:30.370Z,25.67
2018-09-10T08:44:58.899Z,17.33
2018-09-10T08:47:27.354Z,14.50
2018-09-10T08:49:55.861Z,13.77
2018-09-10T08:52:24.344Z,26.17
2018-09-10T08:54:53.065Z,13.27
2018-09-10T08:57:21.286Z,11.70
2018-09-10T08:59:49.740Z,11.00
2018-09-10T09:02:18.202Z,14.10
2018-09-10T09:04:46.634Z,10.90
2018-09-10T09:07:15.098Z,16.13
2018-09-10T09:09:43.570Z,16.27
2018-09-10T09:12:12.030Z,13.87
2018-09-10T09:14:40.497Z,5.50
2018-09-10T09:17:08.947Z,10.00
2018-09-10T09:19:37.406Z,11.30
2018-09-10T09:22:05.882Z,13.27
2018-09-10T09:24:34.319Z,8.13
2018-09-10T09:27:02.736Z,9.20
2018-09-10T09:29:31.203Z,9.13
2018-09-10T09:31:59.645Z,12.63
2018-09-10T09:34:32.321Z,8.23
2018-09-10T09:37:06.059Z,9.93
2018-09-10T09:39:39.966Z,9.10
2018-09-10T09:42:13.968Z,8.67
2018-09-10T09:45:51.539Z,7.30
2018-09-10T09:48:20.009Z,12.20
2018-09-10T09:50:48.526Z,11.30
2018-09-10T09:53:17.099Z,10.97
2018-09-10T09:55:45.672Z,10.60
2018-09-10T09:58:14.108Z,11.97
2018-09-10T10:00:47.824Z,13.07
2018-09-10T10:03:18.313Z,12.10
2018-09-10T10:05:46.766Z,12.37
2018-09-10T10:08:15.210Z,9.90
2018-09-10T10:10:43.657Z,18.23
2018-09-10T10:13:12.082Z,10.37
2018-09-10T10:15:40.546Z,9.57
2018-09-10T10:18:08.990Z,10.33
2018-09-10T10:20:37.458Z,14.53
2018-09-10T10:23:05.951Z,9.17
2018-09-10T10:25:34.561Z,9.60
2018-09-10T10:28:03.053Z,8.73
2018-09-10T10:30:31.452Z,10.73
2018-09-10T10:32:59.906Z,7.77
2018-09-10T10:35:28.326Z,9.70
2018-09-10T10:37:56.791Z,13.93
2018-09-10T10:40:25.284Z,8.97
2018-09-10T10:42:53.724Z,13.00
2018-09-10T10:45:22.179Z,11.33
2018-09-10T10:47:50.610Z,11.60
2018-09-10T10:50:19.074Z,9.43
2018-09-10T10:52:47.524Z,9.77
2018-09-10T10:55:16.014Z,11.93
2018-09-10T10:57:44.470Z,12.13
2018-09-10T11:00:12.930Z,11.37
2018-09-10T11:02:41.368Z,10.37
2018-09-10T11:05:09.802Z,9.50
2018-09-10T11:07:38.245Z,14.73
2018-09-10T11:10:07.592Z,15.10
2018-09-10T11:12:36.061Z,13.47
2018-09-10T11:15:04.831Z,13.13
2018-09-10T11:17:33.269Z,12.00
2018-09-10T11:20:01.733Z,14.67
2018-09-10T11:22:30.161Z,9.33
2018-09-10T11:24:58.635Z,12.03
2018-09-10T11:27:27.095Z,10.17
2018-09-10T11:29:55.521Z,13.73
2018-09-10T11:32:24.025Z,10.70
2018-09-10T11:34:52.484Z,12.30
2018-09-10T11:37:20.997Z,10.47
2018-09-10T11:39:49.490Z,10.60
2018-09-10T11:42:17.967Z,12.93
2018-09-10T11:44:46.379Z,12.90
2018-09-10T11:47:14.817Z,13.50
2018-09-10T11:49:43.365Z,12.47
2018-09-10T11:52:11.814Z,10.10
2018-09-10T11:54:40.272Z,14.73
2018-09-10T11:57:08.730Z,12.17
2018-09-10T11:59:37.168Z,9.67
2018-09-10T12:02:06.901Z,12.87
2018-09-10T12:04:35.270Z,14.47
2018-09-10T12:07:03.773Z,12.07
2018-09-10T12:09:32.902Z,13.40
2018-09-10T12:12:01.345Z,9.17
2018-09-10T12:14:29.818Z,12.43
2018-09-10T12:16:58.245Z,9.53
2018-09-10T12:19:26.699Z,12.73
2018-09-10T12:21:55.145Z,20.17
2018-09-10T12:24:23.593Z,13.37
2018-09-10T12:26:52.026Z,11.37
2018-09-10T12:29:20.457Z,14.30
2018-09-10T12:31:48.897Z,15.13
2018-09-10T12:34:17.317Z,12.03
2018-09-10T12:36:45.759Z,14.13
2018-09-10T12:39:14.170Z,12.83
2018-09-10T12:41:42.652Z,15.57
2018-09-10T12:44:11.082Z,12.07
2018-09-10T12:46:39.588Z,12.10
2018-09-10T12:49:07.955Z,15.23
2018-09-10T12:51:36.395Z,20.70
2018-09-10T12:54:04.931Z,13.43
2018-09-10T12:56:33.352Z,11.50
2018-09-10T12:59:01.816Z,12.00
2018-09-10T13:01:30.258Z,14.60
2018-09-10T13:04:05.238Z,14.17
2018-09-10T13:06:33.736Z,13.37
2018-09-10T13:09:02.192Z,14.73
2018-09-10T13:11:30.738Z,9.00
2018-09-10T13:13:59.186Z,9.50
2018-09-10T13:16:27.675Z,10.17
2018-09-10T13:18:56.106Z,11.67
2018-09-10T13:21:31.188Z,8.03
2018-09-10T13:23:59.618Z,7.83
2018-09-10T13:26:28.044Z,11.10
2018-09-10T13:28:56.492Z,9.50
2018-09-10T13:31:24.966Z,14.27
2018-09-10T13:33:53.414Z,9.47
2018-09-10T13:36:21.885Z,10.20
2018-09-10T13:38:50.324Z,8.97
2018-09-10T13:41:18.770Z,9.27
2018-09-10T13:43:47.181Z,13.63
2018-09-10T13:46:15.679Z,10.53
2018-09-10T13:48:44.160Z,7.93
2018-09-10T13:51:12.612Z,8.33
2018-09-10T13:53:41.050Z,12.63
2018-09-10T13:56:09.469Z,9.30
2018-09-10T13:58:37.927Z,17.10
2018-09-10T14:01:06.357Z,9.00
2018-09-10T14:03:34.810Z,7.75
2018-09-10T14:06:03.295Z,6.97
2018-09-10T14:08:31.732Z,10.72
2018-09-10T14:11:00.161Z,5.62
2018-09-10T14:13:28.613Z,7.47
2018-09-10T14:15:57.064Z,6.13
2018-09-10T14:18:25.502Z,5.20
2018-09-10T14:20:54.056Z,6.23
2018-09-10T14:23:22.566Z,5.50
2018-09-10T14:25:51.201Z,10.07
2018-09-10T14:28:19.675Z,6.67
2018-09-10T14:30:48.136Z,4.47
2018-09-10T14:33:16.584Z,7.77
2018-09-10T14:35:45.078Z,6.45
2018-09-10T14:38:13.533Z,12.03
2018-09-10T14:40:41.986Z,10.53
2018-09-10T14:43:10.713Z,7.10
2018-09-10T14:45:39.082Z,7.07
2018-09-10T14:48:07.532Z,5.10
2018-09-10T14:50:36.045Z,5.93
2018-09-10T14:53:04.492Z,7.83
2018-09-10T14:55:33.735Z,6.63
2018-09-10T14:58:02.163Z,5.47
2018-09-10T15:00:30.692Z,7.00
2018-09-10T15:02:59.176Z,5.47
2018-09-10T15:05:27.646Z,5.27
2018-09-10T15:07:56.088Z,6.87
2018-09-10T15:10:24.550Z,7.90
2018-09-10T15:12:52.997Z,6.03
2018-09-10T15:15:21.476Z,8.27
2018-09-10T15:17:49.965Z,8.33
2018-09-10T15:20:18.439Z,6.03
2018-09-10T15:22:46.885Z,5.17
2018-09-10T15:25:15.327Z,6.30
2018-09-10T15:27:43.759Z,4.33
2018-09-10T15:30:12.206Z,7.50
2018-09-10T15:32:40.662Z,6.20
2018-09-10T15:35:09.088Z,6.97
2018-09-10T15:37:37.535Z,5.57
2018-09-10T15:40:06.106Z,5.83
2018-09-10T15:42:34.555Z,7.30
2018-09-10T15:45:03.321Z,3.57
2018-09-10T15:47:31.783Z,6.30
2018-09-10T15:50:00.242Z,5.80
2018-09-10T15:52:28.685Z,7.83
2018-09-10T15:54:57.125Z,4.63
2018-09-10T15:57:25.644Z,6.77
2018-09-10T15:59:54.138Z,7.80
2018-09-10T16:02:22.688Z,7.90
2018-09-10T16:04:51.293Z,8.90
2018-09-10T16:07:19.858Z,8.80
2018-09-10T16:09:48.277Z,10.40
2018-09-10T16:12:16.825Z,10.13
2018-09-10T16:14:45.664Z,6.70
2018-09-10T16:17:14.182Z,6.77
2018-09-10T16:19:42.621Z,7.07
2018-09-10T16:22:11.042Z,9.70
2018-09-10T16:24:39.498Z,5.87
2018-09-10T16:27:08.042Z,9.57
2018-09-10T16:29:36.489Z,7.83
2018-09-10T16:32:04.960Z,9.13
2018-09-10T16:34:33.404Z,6.87
2018-09-10T16:37:01.915Z,10.23
2018-09-10T16:39:30.432Z,6.40
2018-09-10T16:41:58.989Z,7.60
2018-09-10T16:44:27.604Z,6.40
2018-09-10T16:47:01.291Z,5.23
2018-09-10T16:49:29.889Z,5.33
2018-09-10T16:51:58.395Z,7.67
2018-09-10T16:54:29.540Z,5.40
2018-09-10T16:56:58.442Z,12.67
2018-09-10T16:59:26.923Z,4.37
2018-09-10T17:01:55.449Z,6.50
2018-09-10T17:04:23.925Z,5.53
2018-09-10T17:06:52.370Z,5.87
2018-09-10T17:09:20.918Z,5.57
2018-09-10T17:11:49.399Z,8.47
2018-09-10T17:14:17.876Z,6.37
2018-09-10T17:16:46.379Z,8.80
2018-09-10T17:19:14.895Z,5.63
2018-09-10T17:21:43.405Z,5.93
2018-09-10T17:24:11.912Z,5.33
2018-09-10T17:26:40.425Z,4.13
2018-09-10T17:29:09.941Z,6.03
2018-09-10T17:31:41.744Z,7.33
2018-09-10T17:34:10.559Z,5.57
2018-09-10T17:36:41.290Z,6.67
2018-09-10T17:39:09.770Z,4.57
2018-09-10T17:41:38.247Z,3.83
2018-09-10T17:44:08.519Z,6.53
2018-09-10T17:46:38.791Z,7.27
2018-09-10T17:49:07.302Z,4.80
2018-09-10T17:51:35.799Z,5.67
2018-09-10T17:54:04.230Z,7.87
2018-09-10T17:56:32.764Z,6.93
2018-09-10T17:59:01.303Z,5.37
2018-09-10T18:01:29.943Z,11.20
2018-09-10T18:03:58.411Z,11.83
2018-09-10T18:06:26.857Z,9.10
2018-09-10T18:08:55.273Z,7.87
2018-09-10T18:11:23.757Z,5.90
2018-09-10T18:13:52.192Z,8.23
2018-09-10T18:16:20.638Z,5.67
2018-09-10T18:18:49.190Z,7.97
2018-09-10T18:21:17.638Z,5.87
2018-09-10T18:23:46.123Z,8.03
2018-09-10T18:26:14.591Z,4.20
2018-09-10T18:28:43.058Z,9.27
2018-09-10T18:31:11.506Z,5.33
2018-09-10T18:33:40.117Z,10.53
2018-09-10T18:36:08.661Z,7.50
2018-09-10T18:38:37.251Z,9.17
2018-09-10T18:41:05.803Z,11.73
2018-09-10T18:43:34.253Z,9.10
2018-09-10T18:46:02.723Z,9.23
2018-09-10T18:48:31.245Z,7.50
2018-09-10T18:50:59.753Z,6.60
2018-09-10T18:53:28.247Z,9.37
2018-09-10T18:55:56.713Z,5.87
2018-09-10T18:58:25.199Z,5.77
2018-09-10T19:00:53.624Z,6.13
2018-09-10T19:03:22.082Z,9.83
2018-09-10T19:05:50.533Z,9.43
2018-09-10T19:08:19.047Z,5.13
2018-09-10T19:10:47.569Z,6.10
2018-09-10T19:13:16.039Z,9.43
2018-09-10T19:15:44.537Z,7.37
2018-09-10T19:18:13.010Z,6.93
2018-09-10T19:20:41.491Z,6.23
2018-09-10T19:23:09.985Z,8.03
2018-09-10T19:25:38.416Z,7.27
2018-09-10T19:28:06.894Z,9.30
2018-09-10T19:30:35.336Z,8.40
2018-09-10T19:33:03.826Z,7.67
2018-09-10T19:35:32.278Z,7.60
2018-09-10T19:38:00.739Z,9.17
2018-09-10T19:40:29.240Z,6.60
2018-09-10T19:42:57.724Z,6.60
2018-09-10T19:45:26.165Z,8.87
2018-09-10T19:47:54.636Z,8.80
2018-09-10T19:50:23.099Z,8.83
2018-09-10T19:52:51.576Z,9.60
2018-09-10T19:55:20.087Z,7.93
2018-09-10T19:57:48.566Z,12.33
2018-09-10T20:00:17.014Z,13.80
2018-09-10T20:02:45.528Z,6.47
2018-09-10T20:05:14.004Z,10.40
2018-09-10T20:07:42.496Z,8.47
2018-09-10T20:10:10.993Z,14.20
2018-09-10T20:12:39.530Z,10.50
2018-09-10T20:15:08.161Z,10.33
2018-09-10T20:17:36.582Z,11.93
2018-09-10T20:20:05.913Z,9.27
2018-09-10T20:22:34.365Z,11.70
2018-09-10T20:25:02.961Z,8.07
2018-09-10T20:27:31.701Z,12.40
2018-09-10T20:30:00.187Z,12.30
2018-09-10T20:32:28.660Z,9.40
2018-09-10T20:34:57.103Z,9.47
2018-09-10T20:37:25.546Z,8.87
2018-09-10T20:39:53.972Z,7.53
2018-09-10T20:42:22.448Z,8.90
2018-09-10T20:44:50.896Z,8.80
2018-09-10T20:47:19.353Z,9.37
2018-09-10T20:49:47.900Z,11.10
2018-09-10T20:52:16.468Z,7.47
2018-09-10T20:54:44.970Z,10.50
2018-09-10T20:57:13.395Z,14.20
2018-09-10T20:59:41.860Z,11.90
2018-09-10T21:02:10.298Z,10.03
2018-09-10T21:04:38.757Z,8.90
2018-09-10T21:07:07.203Z,7.53
2018-09-10T21:09:35.618Z,8.43
2018-09-10T21:12:04.133Z,10.87
2018-09-10T21:14:32.592Z,13.00
2018-09-10T21:17:01.016Z,11.10
2018-09-10T21:19:29.469Z,8.50
2018-09-10T21:21:57.948Z,13.03
2018-09-10T21:24:26.354Z,11.70
2018-09-10T21:26:54.778Z,14.90
2018-09-10T21:29:23.235Z,17.37
2018-09-10T21:31:51.696Z,13.03
2018-09-10T21:34:20.131Z,11.17
2018-09-10T21:36:48.578Z,13.47
2018-09-10T21:39:17.026Z,11.83
2018-09-10T21:41:45.467Z,13.90
2018-09-10T21:44:13.914Z,13.83
2018-09-10T21:46:42.367Z,12.97
2018-09-10T21:49:10.824Z,11.23
2018-09-10T21:51:39.289Z,14.50
2018-09-10T21:54:07.753Z,13.37
2018-09-10T21:56:36.206Z,16.67
2018-09-10T21:59:04.635Z,11.67
2018-09-10T22:01:33.064Z,12.83
2018-09-10T22:04:01.502Z,13.77
2018-09-10T22:06:29.941Z,16.50
2018-09-10T22:08:58.412Z,13.53
2018-09-10T22:11:26.849Z,15.70
2018-09-10T22:13:55.341Z,10.80
2018-09-10T22:16:23.802Z,12.10
2018-09-10T22:18:52.244Z,15.53
2018-09-10T22:21:20.685Z,16.13
2018-09-10T22:23:49.130Z,16.80
2018-09-10T22:26:17.561Z,16.77
2018-09-10T22:28:46.026Z,16.63
2018-09-10T22:31:14.451Z,14.67
2018-09-10T22:33:42.905Z,17.77
2018-09-10T22:36:11.384Z,17.60
2018-09-10T22:38:39.818Z,16.97
2018-09-10T22:41:08.253Z,14.50
2018-09-10T22:43:36.749Z,18.20
2018-09-10T22:46:05.198Z,16.03
2018-09-10T22:48:33.620Z,19.33
2018-09-10T22:51:02.089Z,17.87
2018-09-10T22:53:30.538Z,17.07
2018-09-10T22:55:58.955Z,18.47
2018-09-10T22:58:27.402Z,16.73
2018-09-10T23:00:55.875Z,13.83
2018-09-10T23:03:24.422Z,21.50
2018-09-10T23:05:52.879Z,17.27
2018-09-10T23:08:21.306Z,13.63
2018-09-10T23:10:49.740Z,16.43
2018-09-10T23:13:18.190Z,13.47
2018-09-10T23:15:46.622Z,16.40
2018-09-10T23:18:15.078Z,20.20
2018-09-10T23:20:43.514Z,14.97
2018-09-10T23:23:11.924Z,19.27
2018-09-10T23:25:40.360Z,14.50
2018-09-10T23:28:08.822Z,15.60
2018-09-10T23:30:37.301Z,15.80
2018-09-10T23:33:05.785Z,18.63
2018-09-10T23:35:34.217Z,16.47
2018-09-10T23:38:02.693Z,19.27
2018-09-10T23:40:31.137Z,21.13
2018-09-10T23:42:59.597Z,16.27
2018-09-10T23:45:28.039Z,16.73
2018-09-10T23:47:56.450Z,16.07
2018-09-10T23:50:24.905Z,10.70
2018-09-10T23:52:53.321Z,16.23
2018-09-10T23:55:21.798Z,12.40
2018-09-10T23:57:50.219Z,16.67
